La Sarnosa, Argentina
Current Conditions -  °F | °C
As of 4:00 PM on Wednesday 17 Dec 2014 (Local Time) from SARE Reporting Station
Drizzle Drizzle  
Wind Chill: 24°   Ceiling: 600
Heat Index: 24°   Visibility: 3mi
Dew Point: 22°   Wind: 5mph
Humidity: 89%   Direction: 140°SE
Pressure: 29.8"   Gusts: NA
Location:  29.23°S, 60.42°W
Report Text: SARE 171900Z 14004KT 5000 DZ OVC006 24/22 Q1009
Loading
Personal Weather Stations






























Interactive Weather Map New forecast layout! Learn more

10-Day Weather Forecast

Advertisements
Track Severe Weather on mobile